Huvudsida
METAR-TAF:

METAR-TAF

Flygplatser :

Cuneo, Italien

latitud: 44-32-47N, longitud: 007-37-20E, höjd: 386 m

Aktuellt väderrapport

Denna rapport gjordes för 9 timmar och 7 minuter sedan, klockan 19:50 UTC
Vind 2 kt från väst/sydväst
Temperatur 0°C
Fuktighet 100%
Tryck 1022 hPa
Sikt 10 km eller mer
Inga moln under 1 500 m eller inga cumulonimbus

METAR: LIMZ 061950Z 25002KT CAVOK M00/M00 Q1022

Tid: 05:57 (04:57 UTC)

Väderprognos

Denna rapport gjordes för 11 timmar och 57 minuter sedan, klockan 17:00 UTC
Prognos gäller från 06 kl. 18 UTC till 07 kl. 18 UTC
Vind 5 kt varierande vindriktning
Sikt 10 km eller mer
Inga moln under 1 500 m eller inga cumulonimbus

TAF: LIMZ 061700Z 0618/0718 VRB05KT CAVOK

Aktuella väderrapporter och prognoser från 4000 flygplatser (METAR- och TAF-rapporter).

De tillgängliga stationerna syns som gula och röda prickar på kartan.

För musen över prickarna för att se namnen på stationerna.

Klicka sedan för att få väderrapporter och prognoser.

För att ändra kartan: Klicka på de gröna knapparna med ett svart kors på för att zooma in; den gröna knappen med ett streck på för att zooma ut; eller på de gröna pilarna för angränsande kartor.


METAR-TAF: